Arbyrd, MO

10:54 AM CDT on July 28, 2014 (GMT -0500)
KC0UFP WX (KMOKENNE4) Elev 262 ft | 36.21 °N, 90.07 °W | Change Station

Current weather conditions updated 3 minutes ago

Clear
Clear
79.3 °F
Feels Like 81 °F
N
2.7
Wind Variable Wind from West

Today is forecast to be Much Cooler than yesterday.

Today
High -- | Low -- °F
--% Chance of Precip.
Yesterday
High -- | Low -- °F
Precip. -- in
6:04 AM 8:09 PM
Waxing Crescent, 3% visible
Pressure 30.09 in
Visibility 10.0 miles
Clouds Clear
Heat Index 81 °F
Dew Point 66 °F
Humidity 64%
Rainfall 0.00 in
Snow Depth Not available.
UV 6 out of 12
Pollen 6.20 out of 12
Air Quality Not available.
Flu Activity Not available.
METAR KBYH 281455Z 35005KT 10SM SKC 25/18 A3009

More Conditions Fewer Conditions

Pressure 30.09 in
Visibility 10.0 miles
Clouds Clear
Heat Index 81 °F
Dew Point 66 °F
Humidity 64%
Rainfall 0.00 in
Snow Depth Not available.
UV 6 out of 12
Pollen 6.20 out of 12
Air Quality Not available.
Flu Activity Not available.
METAR KBYH 281455Z 35005KT 10SM SKC 25/18 A3009

More Conditions Fewer Conditions

10-Day Weather Forecast

Almanac

Astronomy

Jul. 28, 2014 Rise Set
Actual Time 6:04 AM CDT 8:09 PM CDT
Civil Twilight 5:36 AM CDT 8:37 PM CDT
Nautical Twilight 5:01 AM CDT 9:12 PM CDT
Astronomical Twilight 4:23 AM CDT 9:49 PM CDT
Moon 7:41 AM CDT 8:56 PM CDT
Length of Visible Light 15h 01m
Length of Day
14h 04m
Tomorrow will be 1m 36s shorter.
Waxing Crescent, 3% of the Moon is Illuminated
Today
Waxing Crescent
Aug 3
First Quarter
Aug 10
Full
Aug 17
Last Quarter
Aug 25
New

Today's Extremes

State Highs State Lows

Community

WunderPhotos

Upload Photos

1,738,392 photos uploaded!

Nearby

Snow Depth

Station Depth Elevation
No new snow has been reported.

Earthquake Activity

City Distance Mag. Time & Date
No recent earthquake activity has been reported nearby.
Minimum magnitude displayed is 2.5.

Coastal Water Temperatures

Place Temperature
No Stations Reporting

Nearby Weather Stations

Station Location Temp. Heat Index Dew Point Humidity Wind Precip. Elev Updated Type
KC0UFP WX, Kennett, MO 79.3 °F 81 °F 66 °F 64% West  at  2.7 mph - / hr 262 ft 10:50 AM CDT Normal
Kennett E911, Kennett, MO 79.9 °F 82 °F 66 °F 63% NNW  at  3.0 mph 0.00 in / hr 262 ft 10:53 AM CDT Rapid Fire
William White Subdivision, Paragould, AR 78.8 °F 81 °F 66 °F 64% North  at  5.6 mph 0.00 in / hr 331 ft 10:53 AM CDT Rapid Fire
MesoWest PIGGOT , Piggott, AR 84 °F 81 °F - - North  at  - 0.00 in / hr 287 ft 9:40 AM CDT MADIS
Peach Orchard, Gideon, MO 76.5 °F 78 °F 65 °F 67% North  at  5.0 mph 0.00 in / hr 263 ft 10:53 AM CDT Rapid Fire

Show More Stations Show Fewer Stations